Logo AVAMET
Benvolgut visitant, si us plau, ingressa Recuperar contrasenya

Inforatge Massamagrell

Dades diàries. Acumulats / Últims 30 dies disponibles

Data Temperatura (°C) Humitat rel. (%) Pressió rel. (hPa) Vent (km/h) Precipitació
Mínima Mitjana Màxima Amplitud
tèrmica
Mínima Mitjana Màxima Mínima Mitjana Màxima Predom. Mitjana Ràfega
màxima
Total
(mm)
Índex-n
Mínima Mitjana Màxima Mínima Mitjana Màxima n
0 a 1
P0 max
mm 5'
Dades mensuals acumulades fins l'últim dia disponible
07/2019 19,8 22,0 24,1 25,9 27,6 29,7 37,6 17,8 22 72 91 1.011 1.015 1.019   8,1 38,9 14,0
Dades anuals acumulades fins l'últim dia disponible
2019 0,5 11,1 24,1 16,0 9,6 21,0 37,6 37,1 14 66 98 993 1.019 1.037   7,9 77,8 97,0
Últims 30 dies disponibles
16-07-2019 23,5     26,0     28,1 4,6 66 73 82 1.015 1.017 1.018 ESE 9,3 35,4 0,0
15-07-2019 22,1     25,8     30,8 8,7 52 72 82 1.012 1.013 1.015 S 8,7 35,4 0,0
14-07-2019 21,4     25,6     28,7 7,3 66 74 82 1.011 1.013 1.014 SSE 7,5 35,4 0,0
13-07-2019 24,1     26,7     29,4 5,3 49 68 83 1.013 1.015 1.018 E 10,4 38,9 0,0
12-07-2019 22,0     26,8     31,7 9,7 50 66 81 1.015 1.016 1.017 SSE 6,9 25,9 0,0
11-07-2019 20,7     26,0     30,3 9,6 52 71 83 1.014 1.015 1.017 SSE 6,5 31,5 0,0
10-07-2019 21,1     24,9     27,6 6,5 64 77 85 1.015 1.016 1.017 SE 7,9 33,9 0,0
09-07-2019 21,7     25,3     29,3 7,6 49 72 86 1.011 1.013 1.016 SSE 9,6 35,4 0,0
08-07-2019 22,6     25,5     27,9 5,3 67 79 89 1.012 1.013 1.016 SE 8,6 35,4 5,0
07-07-2019 24,1     27,8     37,6 13,5 22 69 89 1.011 1.013 1.015 S 8,9 37,0 9,0 0,34 1,20
06-07-2019 23,2     26,5     29,4 6,2 69 81 89 1.011 1.014 1.017 SSE 5,6 24,1 0,0
05-07-2019 21,0     25,7     29,0 8,0 62 76 91 1.015 1.017 1.019 SSE 7,1 29,6 0,0
04-07-2019 20,0     25,8     29,7 9,7 44 63 91 1.016 1.017 1.019 SSE 7,2 29,6 0,0
03-07-2019 19,8     25,5     29,6 9,8 45 61 76 1.015 1.016 1.017 SSE 7,3 27,8 0,0
02-07-2019 23,8     25,9     28,4 4,6 57 75 89 1.015 1.017 1.018 ENE 9,1 31,5 0,0
01-07-2019 21,2     25,1     28,2 7,0 64 76 86 1.016 1.018 1.019 ESE 9,5 33,9 0,0
30-06-2019 20,1     26,1     30,9 10,8 40 58 89 1.017 1.018 1.019 SSE 6,6 24,1 0,0
29-06-2019 19,5     27,3     34,1 14,6 23 48 63 1.015 1.016 1.018 SSO 4,9 27,8 0,0
28-06-2019 20,6     27,1     32,6 12,0 40 57 80 1.016 1.018 1.020 S 5,5 24,1 0,0
27-06-2019 20,5     25,3     29,8 9,3 51 72 89 1.019 1.021 1.022 ESE 7,4 31,5 0,0
26-06-2019 21,6     24,0     26,4 4,8 71 81 89 1.019 1.020 1.021 E 11,5 42,6 0,0
25-06-2019 19,4     23,2     25,7 6,3 72 82 89 1.016 1.018 1.020 SE 7,2 35,4 0,0
24-06-2019 17,9     22,4     25,7 7,8 56 76 87 1.015 1.016 1.017 SE 9,7 37,0 0,0
23-06-2019 17,7     22,6     26,3 8,6 60 77 88 1.015 1.016 1.018 SSE 5,9 25,9 0,0
22-06-2019 18,4     21,9     24,8 6,4 66 79 87 1.016 1.018 1.019 SSE 6,6 29,6 0,0
21-06-2019 20,7     22,4     24,4 3,7 68 79 85 1.014 1.016 1.019 E 9,0 29,6 0,0
20-06-2019 20,6     22,3     24,2 3,6 67 78 87 1.013 1.014 1.016 ENE 10,8 38,9 0,0
19-06-2019 16,8     22,3     27,0 10,2 47 71 84 1.012 1.014 1.015 SE 7,8 27,8 0,0
18-06-2019 16,9     21,4     25,1 8,2 58 74 83 1.014 1.016 1.018 SSE 8,7 33,9 0,0
17-06-2019 15,8     20,9     25,4 9,6 56 77 87 1.016 1.018 1.020 SE 9,8 31,5 0,0
Últims 13 mesos disponibles
06/2019 11,4 17,3 21,6 22,0 20,4 25,9 34,1 22,7 48 68 82 1.010 1.017 1.023 SE 8,5 59,6 0,0
05/2019 8,5 13,8 19,1 18,2 17,8 22,3 33,1 24,6 47 69 85 1.006 1.016 1.026 SSE 7,9 55,6 26,6
04/2019 7,4 10,9 14,3 15,1 15,5 19,7 30,1 22,7 46 67 95 1.000 1.014 1.026 SSO 10,3 70,9 43,2
03/2019 4,8 8,2 14,2 13,7 9,6 19,0 29,1 24,3 44 63 83 1.012 1.024 1.031 SSO 6,9 61,1 12,8
02/2019 1,4 5,6 10,8 11,1 13,2 17,5 25,2 23,8 33 67 80 995 1.026 1.035 SSO 6,9 77,8 0,0
01/2019 0,5 4,9 11,8 10,3 11,7 16,6 20,7 20,2 44 61 82 1.002 1.020 1.031 OSO 6,8 66,7 0,4
12/2018 3,9 7,6 12,9 12,2 14,3 18,3 24,2 20,3 51 72 86 1.009 1.026 1.031 OSO 5,7 61,1 8,4
11/2018 5,1 10,6 16,3 14,1 14,3 18,4 23,6 18,5 57 74 90 1.003 1.016 1.025 OSO 7,2 64,8 149,8
10/2018 7,4 13,9 18,2 17,8 14,2 21,7 27,2 19,8 42 74 90 1.001 1.015 1.027 SSE 6,0 66,7 227,0
09/2018 18,2 20,8 23,7 24,5 24,4 27,7 30,3 12,1 67 77 84 1.014 1.019 1.025 5,6 38,9 53,4
08/2018 19,8 22,9 27,2 26,2 26,3 29,5 32,4 12,6 57 71 79 1.014 1.019 1.023 7,6 59,6 4,2
Tots els anys disponibles
Temperatura (°C)
Humitat relativa (%)
Velocitat del vent i ràfega màxima (km/h)
Direcció del vent (°)
Pressió (hPa)
Precipitació (mm)
Nota sobre les dades: s'avisa a l'usuari de la provisionalitat i no oficialitat d'aquestes dades
Logo AVAMET blanc
Web allotjada a Sollutia
Llicència de Creative CommonsLa web d'AVAMET i els seus continguts estan subjectes a una llicència de
Reconeixement - No Comercial - Compartir igual
Properes estacions: Altea - Club Nàutic d'Altea (Soci), Ares del Maestrat (Ajuntament Soci),      - - - - -      Últimes estacions: Catadau - Urb. Lloma Molina (Inforatge), Ontinyent - El Pilar (Soci), Asp - Poliesportiu (Soci) - - -